sensor_id;sensor_type;location;lat;lon;timestamp;P1;durP1;ratioP1;P2;durP2;ratioP2
14883;SDS011;7534;50.762;7.000;2024-03-02T00:02:12;2.70;;;2.37;;
14883;SDS011;7534;50.762;7.000;2024-03-02T00:04:39;2.87;;;2.33;;
14883;SDS011;7534;50.762;7.000;2024-03-02T00:07:05;2.50;;;2.03;;
14883;SDS011;7534;50.762;7.000;2024-03-02T00:09:32;2.00;;;1.80;;
14883;SDS011;7534;50.762;7.000;2024-03-02T00:11:59;2.43;;;2.03;;
14883;SDS011;7534;50.762;7.000;2024-03-02T00:14:25;2.33;;;2.13;;
14883;SDS011;7534;50.762;7.000;2024-03-02T00:16:54;2.10;;;1.90;;
14883;SDS011;7534;50.762;7.000;2024-03-02T00:19:21;2.90;;;2.20;;
14883;SDS011;7534;50.762;7.000;2024-03-02T00:21:47;3.20;;;2.30;;
14883;SDS011;7534;50.762;7.000;2024-03-02T00:24:32;3.10;;;2.30;;
14883;SDS011;7534;50.762;7.000;2024-03-02T00:27:00;3.73;;;2.97;;
14883;SDS011;7534;50.762;7.000;2024-03-02T00:29:29;3.83;;;2.80;;
14883;SDS011;7534;50.762;7.000;2024-03-02T00:31:55;5.77;;;3.27;;
14883;SDS011;7534;50.762;7.000;2024-03-02T00:34:23;2.70;;;2.40;;
14883;SDS011;7534;50.762;7.000;2024-03-02T00:36:48;2.13;;;1.93;;
14883;SDS011;7534;50.762;7.000;2024-03-02T00:39:15;2.83;;;1.80;;
14883;SDS011;7534;50.762;7.000;2024-03-02T00:41:42;3.90;;;2.33;;
14883;SDS011;7534;50.762;7.000;2024-03-02T00:44:15;4.67;;;2.67;;
14883;SDS011;7534;50.762;7.000;2024-03-02T00:46:43;3.37;;;3.07;;
14883;SDS011;7534;50.762;7.000;2024-03-02T00:49:13;3.07;;;2.63;;
14883;SDS011;7534;50.762;7.000;2024-03-02T00:51:54;3.07;;;2.77;;
14883;SDS011;7534;50.762;7.000;2024-03-02T00:54:22;2.60;;;2.40;;
14883;SDS011;7534;50.762;7.000;2024-03-02T00:56:51;4.30;;;3.17;;
14883;SDS011;7534;50.762;7.000;2024-03-02T00:59:20;3.20;;;2.90;;
14883;SDS011;7534;50.762;7.000;2024-03-02T01:01:47;2.90;;;2.60;;
14883;SDS011;7534;50.762;7.000;2024-03-02T01:04:17;4.43;;;3.50;;
14883;SDS011;7534;50.762;7.000;2024-03-02T01:06:42;3.57;;;2.93;;
14883;SDS011;7534;50.762;7.000;2024-03-02T01:09:08;2.33;;;2.10;;
14883;SDS011;7534;50.762;7.000;2024-03-02T01:11:34;3.00;;;2.70;;
14883;SDS011;7534;50.762;7.000;2024-03-02T01:14:00;3.93;;;3.20;;
14883;SDS011;7534;50.762;7.000;2024-03-02T01:16:25;3.77;;;3.10;;
14883;SDS011;7534;50.762;7.000;2024-03-02T01:18:51;3.60;;;2.90;;
14883;SDS011;7534;50.762;7.000;2024-03-02T01:21:17;5.07;;;4.40;;
14883;SDS011;7534;50.762;7.000;2024-03-02T01:23:42;4.43;;;4.00;;
14883;SDS011;7534;50.762;7.000;2024-03-02T01:26:08;5.73;;;4.30;;
14883;SDS011;7534;50.762;7.000;2024-03-02T01:28:34;5.00;;;4.50;;
14883;SDS011;7534;50.762;7.000;2024-03-02T01:31:00;4.67;;;4.00;;
14883;SDS011;7534;50.762;7.000;2024-03-02T01:33:27;4.60;;;3.87;;
14883;SDS011;7534;50.762;7.000;2024-03-02T01:35:52;3.43;;;3.07;;
14883;SDS011;7534;50.762;7.000;2024-03-02T01:38:18;3.93;;;2.63;;
14883;SDS011;7534;50.762;7.000;2024-03-02T01:40:44;2.77;;;2.30;;
14883;SDS011;7534;50.762;7.000;2024-03-02T01:43:10;3.70;;;2.77;;
14883;SDS011;7534;50.762;7.000;2024-03-02T01:45:36;4.43;;;3.30;;
14883;SDS011;7534;50.762;7.000;2024-03-02T01:48:02;3.37;;;2.90;;
14883;SDS011;7534;50.762;7.000;2024-03-02T01:50:32;3.40;;;2.70;;
14883;SDS011;7534;50.762;7.000;2024-03-02T01:52:59;3.43;;;3.03;;
14883;SDS011;7534;50.762;7.000;2024-03-02T01:55:25;2.80;;;2.50;;
14883;SDS011;7534;50.762;7.000;2024-03-02T01:57:52;3.73;;;2.40;;
14883;SDS011;7534;50.762;7.000;2024-03-02T02:00:19;3.27;;;2.43;;
14883;SDS011;7534;50.762;7.000;2024-03-02T02:02:46;2.73;;;2.50;;
14883;SDS011;7534;50.762;7.000;2024-03-02T02:05:13;2.60;;;2.40;;
14883;SDS011;7534;50.762;7.000;2024-03-02T02:07:40;2.43;;;2.03;;
14883;SDS011;7534;50.762;7.000;2024-03-02T02:10:07;2.70;;;2.20;;
14883;SDS011;7534;50.762;7.000;2024-03-02T02:12:33;2.83;;;1.90;;
14883;SDS011;7534;50.762;7.000;2024-03-02T02:15:00;1.83;;;1.70;;
14883;SDS011;7534;50.762;7.000;2024-03-02T02:17:26;2.13;;;1.50;;
14883;SDS011;7534;50.762;7.000;2024-03-02T02:19:53;2.47;;;1.90;;
14883;SDS011;7534;50.762;7.000;2024-03-02T02:22:18;1.87;;;1.70;;
14883;SDS011;7534;50.762;7.000;2024-03-02T02:24:44;2.80;;;2.00;;
14883;SDS011;7534;50.762;7.000;2024-03-02T02:27:10;1.87;;;1.77;;
14883;SDS011;7534;50.762;7.000;2024-03-02T02:29:36;1.87;;;1.67;;
14883;SDS011;7534;50.762;7.000;2024-03-02T02:32:02;1.77;;;1.67;;
14883;SDS011;7534;50.762;7.000;2024-03-02T02:34:28;1.80;;;1.60;;
14883;SDS011;7534;50.762;7.000;2024-03-02T02:36:54;2.13;;;1.63;;
14883;SDS011;7534;50.762;7.000;2024-03-02T02:39:20;2.50;;;1.90;;
14883;SDS011;7534;50.762;7.000;2024-03-02T02:41:50;2.17;;;1.90;;
14883;SDS011;7534;50.762;7.000;2024-03-02T02:44:15;2.40;;;2.00;;
14883;SDS011;7534;50.762;7.000;2024-03-02T02:46:41;2.47;;;1.77;;
14883;SDS011;7534;50.762;7.000;2024-03-02T02:49:07;3.17;;;1.87;;
14883;SDS011;7534;50.762;7.000;2024-03-02T02:51:33;2.70;;;1.70;;
14883;SDS011;7534;50.762;7.000;2024-03-02T02:53:58;1.50;;;1.40;;
14883;SDS011;7534;50.762;7.000;2024-03-02T02:56:24;1.90;;;1.70;;
14883;SDS011;7534;50.762;7.000;2024-03-02T02:58:50;2.13;;;1.67;;
14883;SDS011;7534;50.762;7.000;2024-03-02T03:01:16;2.00;;;1.63;;
14883;SDS011;7534;50.762;7.000;2024-03-02T03:03:43;2.60;;;2.13;;
14883;SDS011;7534;50.762;7.000;2024-03-02T03:06:09;2.23;;;1.60;;
14883;SDS011;7534;50.762;7.000;2024-03-02T03:08:35;1.80;;;1.60;;
14883;SDS011;7534;50.762;7.000;2024-03-02T03:11:01;1.80;;;1.70;;
14883;SDS011;7534;50.762;7.000;2024-03-02T03:13:27;2.63;;;1.80;;
14883;SDS011;7534;50.762;7.000;2024-03-02T03:15:52;3.27;;;1.70;;
14883;SDS011;7534;50.762;7.000;2024-03-02T03:18:18;1.50;;;1.40;;
14883;SDS011;7534;50.762;7.000;2024-03-02T03:20:44;2.00;;;1.80;;
14883;SDS011;7534;50.762;7.000;2024-03-02T03:23:09;3.57;;;1.90;;
14883;SDS011;7534;50.762;7.000;2024-03-02T03:25:40;1.70;;;1.60;;
14883;SDS011;7534;50.762;7.000;2024-03-02T03:28:07;2.33;;;1.80;;
14883;SDS011;7534;50.762;7.000;2024-03-02T03:30:34;2.03;;;1.73;;
14883;SDS011;7534;50.762;7.000;2024-03-02T03:33:04;2.03;;;1.83;;
14883;SDS011;7534;50.762;7.000;2024-03-02T03:35:31;2.10;;;1.70;;
14883;SDS011;7534;50.762;7.000;2024-03-02T03:37:57;2.17;;;1.70;;
14883;SDS011;7534;50.762;7.000;2024-03-02T03:40:23;2.47;;;1.57;;
14883;SDS011;7534;50.762;7.000;2024-03-02T03:42:49;1.60;;;1.40;;
14883;SDS011;7534;50.762;7.000;2024-03-02T03:45:15;2.20;;;1.50;;
14883;SDS011;7534;50.762;7.000;2024-03-02T03:47:41;2.73;;;1.57;;
14883;SDS011;7534;50.762;7.000;2024-03-02T03:50:07;1.80;;;1.70;;
14883;SDS011;7534;50.762;7.000;2024-03-02T03:52:33;2.77;;;1.50;;
14883;SDS011;7534;50.762;7.000;2024-03-02T03:54:59;2.10;;;1.87;;
14883;SDS011;7534;50.762;7.000;2024-03-02T03:57:25;2.00;;;1.60;;
14883;SDS011;7534;50.762;7.000;2024-03-02T03:59:51;1.50;;;1.40;;
14883;SDS011;7534;50.762;7.000;2024-03-02T04:02:18;1.77;;;1.67;;
14883;SDS011;7534;50.762;7.000;2024-03-02T04:04:43;2.00;;;1.60;;
14883;SDS011;7534;50.762;7.000;2024-03-02T04:07:09;1.93;;;1.60;;
14883;SDS011;7534;50.762;7.000;2024-03-02T04:09:35;1.93;;;1.50;;
14883;SDS011;7534;50.762;7.000;2024-03-02T04:12:00;1.90;;;1.70;;
14883;SDS011;7534;50.762;7.000;2024-03-02T04:14:26;2.27;;;1.50;;
14883;SDS011;7534;50.762;7.000;2024-03-02T04:16:52;2.23;;;1.60;;
14883;SDS011;7534;50.762;7.000;2024-03-02T04:19:17;2.40;;;1.80;;
14883;SDS011;7534;50.762;7.000;2024-03-02T04:21:43;2.33;;;1.80;;
14883;SDS011;7534;50.762;7.000;2024-03-02T04:24:09;2.00;;;1.70;;
14883;SDS011;7534;50.762;7.000;2024-03-02T04:26:35;2.00;;;1.70;;
14883;SDS011;7534;50.762;7.000;2024-03-02T04:29:00;2.50;;;1.60;;
14883;SDS011;7534;50.762;7.000;2024-03-02T04:31:26;1.57;;;1.47;;
14883;SDS011;7534;50.762;7.000;2024-03-02T04:33:52;1.50;;;1.40;;
14883;SDS011;7534;50.762;7.000;2024-03-02T04:36:19;2.13;;;1.60;;
14883;SDS011;7534;50.762;7.000;2024-03-02T04:38:44;1.97;;;1.60;;
14883;SDS011;7534;50.762;7.000;2024-03-02T04:41:10;1.87;;;1.70;;
14883;SDS011;7534;50.762;7.000;2024-03-02T04:43:36;2.33;;;1.60;;
14883;SDS011;7534;50.762;7.000;2024-03-02T04:46:01;2.03;;;1.77;;
14883;SDS011;7534;50.762;7.000;2024-03-02T04:48:27;2.07;;;1.60;;
14883;SDS011;7534;50.762;7.000;2024-03-02T04:50:53;2.50;;;1.70;;
14883;SDS011;7534;50.762;7.000;2024-03-02T04:53:18;1.90;;;1.53;;
14883;SDS011;7534;50.762;7.000;2024-03-02T04:55:44;1.90;;;1.50;;
14883;SDS011;7534;50.762;7.000;2024-03-02T04:58:18;1.87;;;1.30;;
14883;SDS011;7534;50.762;7.000;2024-03-02T05:00:44;1.77;;;1.50;;
14883;SDS011;7534;50.762;7.000;2024-03-02T05:03:11;2.80;;;1.50;;
14883;SDS011;7534;50.762;7.000;2024-03-02T05:05:38;2.10;;;1.60;;
14883;SDS011;7534;50.762;7.000;2024-03-02T05:08:03;2.43;;;1.80;;
14883;SDS011;7534;50.762;7.000;2024-03-02T05:10:29;1.90;;;1.70;;
14883;SDS011;7534;50.762;7.000;2024-03-02T05:12:55;2.67;;;1.90;;
14883;SDS011;7534;50.762;7.000;2024-03-02T05:15:24;2.40;;;1.90;;
14883;SDS011;7534;50.762;7.000;2024-03-02T05:17:50;4.30;;;2.00;;
14883;SDS011;7534;50.762;7.000;2024-03-02T05:20:16;2.07;;;1.80;;
14883;SDS011;7534;50.762;7.000;2024-03-02T05:22:42;2.67;;;2.03;;
14883;SDS011;7534;50.762;7.000;2024-03-02T05:25:08;1.97;;;1.60;;
14883;SDS011;7534;50.762;7.000;2024-03-02T05:27:37;2.13;;;1.80;;
14883;SDS011;7534;50.762;7.000;2024-03-02T05:30:02;1.57;;;1.47;;
14883;SDS011;7534;50.762;7.000;2024-03-02T05:32:31;1.63;;;1.53;;
14883;SDS011;7534;50.762;7.000;2024-03-02T05:34:57;1.73;;;1.63;;
14883;SDS011;7534;50.762;7.000;2024-03-02T05:37:23;2.10;;;1.90;;
14883;SDS011;7534;50.762;7.000;2024-03-02T05:39:48;2.03;;;1.63;;
14883;SDS011;7534;50.762;7.000;2024-03-02T05:42:14;1.70;;;1.60;;
14883;SDS011;7534;50.762;7.000;2024-03-02T05:44:41;1.83;;;1.70;;
14883;SDS011;7534;50.762;7.000;2024-03-02T05:47:07;3.17;;;1.80;;
14883;SDS011;7534;50.762;7.000;2024-03-02T05:49:33;2.03;;;1.87;;
14883;SDS011;7534;50.762;7.000;2024-03-02T05:52:00;2.87;;;1.90;;
14883;SDS011;7534;50.762;7.000;2024-03-02T05:54:25;2.93;;;1.90;;
14883;SDS011;7534;50.762;7.000;2024-03-02T05:56:51;1.80;;;1.67;;
14883;SDS011;7534;50.762;7.000;2024-03-02T05:59:16;1.60;;;1.50;;
14883;SDS011;7534;50.762;7.000;2024-03-02T06:01:43;2.57;;;1.90;;
14883;SDS011;7534;50.762;7.000;2024-03-02T06:04:11;2.17;;;1.97;;
14883;SDS011;7534;50.762;7.000;2024-03-02T06:06:37;2.70;;;1.90;;
14883;SDS011;7534;50.762;7.000;2024-03-02T06:09:03;2.43;;;1.73;;
14883;SDS011;7534;50.762;7.000;2024-03-02T06:11:36;2.57;;;1.80;;
14883;SDS011;7534;50.762;7.000;2024-03-02T06:14:06;2.87;;;1.87;;
14883;SDS011;7534;50.762;7.000;2024-03-02T06:16:33;4.33;;;1.93;;
14883;SDS011;7534;50.762;7.000;2024-03-02T06:18:59;2.77;;;1.90;;
14883;SDS011;7534;50.762;7.000;2024-03-02T06:21:25;3.80;;;1.97;;
14883;SDS011;7534;50.762;7.000;2024-03-02T06:23:52;2.30;;;1.87;;
14883;SDS011;7534;50.762;7.000;2024-03-02T06:26:18;3.13;;;1.97;;
14883;SDS011;7534;50.762;7.000;2024-03-02T06:28:44;3.17;;;2.10;;
14883;SDS011;7534;50.762;7.000;2024-03-02T06:31:11;2.50;;;1.90;;
14883;SDS011;7534;50.762;7.000;2024-03-02T06:33:37;2.37;;;2.10;;
14883;SDS011;7534;50.762;7.000;2024-03-02T06:36:03;2.97;;;2.50;;
14883;SDS011;7534;50.762;7.000;2024-03-02T06:38:29;4.23;;;3.07;;
14883;SDS011;7534;50.762;7.000;2024-03-02T06:40:58;5.20;;;3.83;;
14883;SDS011;7534;50.762;7.000;2024-03-02T06:43:23;6.33;;;4.20;;
14883;SDS011;7534;50.762;7.000;2024-03-02T06:45:50;5.33;;;4.80;;
14883;SDS011;7534;50.762;7.000;2024-03-02T06:48:16;8.20;;;6.07;;
14883;SDS011;7534;50.762;7.000;2024-03-02T06:50:48;8.80;;;6.37;;
14883;SDS011;7534;50.762;7.000;2024-03-02T06:53:15;9.17;;;6.40;;
14883;SDS011;7534;50.762;7.000;2024-03-02T06:55:44;8.23;;;5.53;;
14883;SDS011;7534;50.762;7.000;2024-03-02T06:58:11;3.60;;;2.97;;
14883;SDS011;7534;50.762;7.000;2024-03-02T07:00:38;2.90;;;2.10;;
14883;SDS011;7534;50.762;7.000;2024-03-02T07:03:03;2.23;;;1.90;;
14883;SDS011;7534;50.762;7.000;2024-03-02T07:05:29;1.83;;;1.73;;
14883;SDS011;7534;50.762;7.000;2024-03-02T07:07:55;2.27;;;1.70;;
14883;SDS011;7534;50.762;7.000;2024-03-02T07:10:21;2.00;;;1.80;;
14883;SDS011;7534;50.762;7.000;2024-03-02T07:12:46;2.10;;;1.90;;
14883;SDS011;7534;50.762;7.000;2024-03-02T07:15:12;5.03;;;3.13;;
14883;SDS011;7534;50.762;7.000;2024-03-02T07:17:58;6.73;;;3.37;;
14883;SDS011;7534;50.762;7.000;2024-03-02T07:20:24;11.83;;;3.57;;
14883;SDS011;7534;50.762;7.000;2024-03-02T07:22:49;9.13;;;3.00;;
14883;SDS011;7534;50.762;7.000;2024-03-02T07:25:15;6.07;;;2.43;;
14883;SDS011;7534;50.762;7.000;2024-03-02T07:27:41;2.77;;;2.23;;
14883;SDS011;7534;50.762;7.000;2024-03-02T07:30:08;3.90;;;2.47;;
14883;SDS011;7534;50.762;7.000;2024-03-02T07:32:35;2.73;;;2.17;;
14883;SDS011;7534;50.762;7.000;2024-03-02T07:35:01;3.43;;;2.60;;
14883;SDS011;7534;50.762;7.000;2024-03-02T07:37:28;2.10;;;1.90;;
14883;SDS011;7534;50.762;7.000;2024-03-02T07:39:54;3.50;;;2.30;;
14883;SDS011;7534;50.762;7.000;2024-03-02T07:42:20;3.67;;;2.17;;
14883;SDS011;7534;50.762;7.000;2024-03-02T07:44:46;2.50;;;2.30;;
14883;SDS011;7534;50.762;7.000;2024-03-02T07:47:11;3.90;;;2.50;;
14883;SDS011;7534;50.762;7.000;2024-03-02T07:49:37;2.77;;;2.30;;
14883;SDS011;7534;50.762;7.000;2024-03-02T07:52:03;2.35;;;1.83;;
14883;SDS011;7534;50.762;7.000;2024-03-02T07:54:29;4.53;;;2.97;;
14883;SDS011;7534;50.762;7.000;2024-03-02T07:56:55;2.40;;;2.20;;
14883;SDS011;7534;50.762;7.000;2024-03-02T07:59:20;3.00;;;2.50;;
14883;SDS011;7534;50.762;7.000;2024-03-02T08:01:48;3.40;;;2.70;;
14883;SDS011;7534;50.762;7.000;2024-03-02T08:04:15;2.10;;;1.90;;
14883;SDS011;7534;50.762;7.000;2024-03-02T08:06:41;2.67;;;2.13;;
14883;SDS011;7534;50.762;7.000;2024-03-02T08:09:06;3.30;;;2.38;;
14883;SDS011;7534;50.762;7.000;2024-03-02T08:11:35;2.60;;;2.40;;
14883;SDS011;7534;50.762;7.000;2024-03-02T08:14:01;3.22;;;2.20;;
14883;SDS011;7534;50.762;7.000;2024-03-02T08:16:26;2.55;;;2.10;;
14883;SDS011;7534;50.762;7.000;2024-03-02T08:18:52;4.03;;;3.30;;
14883;SDS011;7534;50.762;7.000;2024-03-02T08:21:18;2.70;;;2.17;;
14883;SDS011;7534;50.762;7.000;2024-03-02T08:23:44;2.08;;;1.80;;
14883;SDS011;7534;50.762;7.000;2024-03-02T08:26:10;2.35;;;2.15;;
14883;SDS011;7534;50.762;7.000;2024-03-02T08:28:36;2.83;;;2.03;;
14883;SDS011;7534;50.762;7.000;2024-03-02T08:31:03;2.58;;;2.10;;
14883;SDS011;7534;50.762;7.000;2024-03-02T08:33:29;2.35;;;1.98;;
14883;SDS011;7534;50.762;7.000;2024-03-02T08:35:55;3.13;;;1.92;;
14883;SDS011;7534;50.762;7.000;2024-03-02T08:38:21;2.03;;;1.92;;
14883;SDS011;7534;50.762;7.000;2024-03-02T08:40:47;3.15;;;1.70;;
14883;SDS011;7534;50.762;7.000;2024-03-02T08:43:14;2.08;;;1.85;;
14883;SDS011;7534;50.762;7.000;2024-03-02T08:45:40;1.73;;;1.60;;
14883;SDS011;7534;50.762;7.000;2024-03-02T08:48:07;2.17;;;1.85;;
14883;SDS011;7534;50.762;7.000;2024-03-02T08:50:33;2.17;;;1.98;;
14883;SDS011;7534;50.762;7.000;2024-03-02T08:53:00;3.30;;;1.88;;
14883;SDS011;7534;50.762;7.000;2024-03-02T08:55:26;1.80;;;1.70;;
14883;SDS011;7534;50.762;7.000;2024-03-02T08:57:51;2.35;;;2.15;;
14883;SDS011;7534;50.762;7.000;2024-03-02T09:00:17;2.17;;;1.98;;
14883;SDS011;7534;50.762;7.000;2024-03-02T09:02:44;2.17;;;1.98;;
14883;SDS011;7534;50.762;7.000;2024-03-02T09:05:10;2.50;;;2.10;;
14883;SDS011;7534;50.762;7.000;2024-03-02T09:07:36;2.65;;;1.85;;
14883;SDS011;7534;50.762;7.000;2024-03-02T09:10:04;2.55;;;1.83;;
14883;SDS011;7534;50.762;7.000;2024-03-02T09:12:31;2.17;;;1.98;;
14883;SDS011;7534;50.762;7.000;2024-03-02T09:14:57;2.67;;;2.13;;
14883;SDS011;7534;50.762;7.000;2024-03-02T09:17:25;2.20;;;2.00;;
14883;SDS011;7534;50.762;7.000;2024-03-02T09:19:50;2.42;;;2.10;;
14883;SDS011;7534;50.762;7.000;2024-03-02T09:22:20;2.45;;;1.90;;
14883;SDS011;7534;50.762;7.000;2024-03-02T09:24:46;2.28;;;2.08;;
14883;SDS011;7534;50.762;7.000;2024-03-02T09:27:12;2.65;;;2.35;;
14883;SDS011;7534;50.762;7.000;2024-03-02T09:29:37;2.97;;;2.10;;
14883;SDS011;7534;50.762;7.000;2024-03-02T09:32:04;2.45;;;2.05;;
14883;SDS011;7534;50.762;7.000;2024-03-02T09:34:31;2.67;;;2.13;;
14883;SDS011;7534;50.762;7.000;2024-03-02T09:36:57;4.00;;;2.78;;
14883;SDS011;7534;50.762;7.000;2024-03-02T09:39:23;2.50;;;2.30;;
14883;SDS011;7534;50.762;7.000;2024-03-02T09:41:50;2.65;;;2.40;;
14883;SDS011;7534;50.762;7.000;2024-03-02T09:44:18;2.20;;;2.00;;
14883;SDS011;7534;50.762;7.000;2024-03-02T09:46:48;2.65;;;2.25;;
14883;SDS011;7534;50.762;7.000;2024-03-02T09:49:14;2.15;;;1.85;;
14883;SDS011;7534;50.762;7.000;2024-03-02T09:51:40;2.80;;;2.03;;
14883;SDS011;7534;50.762;7.000;2024-03-02T09:54:12;2.88;;;2.00;;
14883;SDS011;7534;50.762;7.000;2024-03-02T09:56:38;3.15;;;2.80;;
14883;SDS011;7534;50.762;7.000;2024-03-02T09:59:04;4.72;;;3.58;;
14883;SDS011;7534;50.762;7.000;2024-03-02T10:01:30;3.00;;;2.67;;
14883;SDS011;7534;50.762;7.000;2024-03-02T10:03:58;3.55;;;2.50;;
14883;SDS011;7534;50.762;7.000;2024-03-02T10:06:25;3.13;;;2.60;;
14883;SDS011;7534;50.762;7.000;2024-03-02T10:08:53;3.35;;;2.67;;
14883;SDS011;7534;50.762;7.000;2024-03-02T10:14:08;2.60;;;2.17;;
14883;SDS011;7534;50.762;7.000;2024-03-02T10:16:36;2.88;;;2.30;;
14883;SDS011;7534;50.762;7.000;2024-03-02T10:21:49;2.20;;;2.00;;
14883;SDS011;7534;50.762;7.000;2024-03-02T10:24:17;2.35;;;1.80;;
14883;SDS011;7534;50.762;7.000;2024-03-02T10:26:47;2.28;;;1.90;;
14883;SDS011;7534;50.762;7.000;2024-03-02T10:29:13;1.98;;;1.77;;
14883;SDS011;7534;50.762;7.000;2024-03-02T10:31:40;1.85;;;1.75;;
14883;SDS011;7534;50.762;7.000;2024-03-02T10:34:07;2.38;;;1.83;;
14883;SDS011;7534;50.762;7.000;2024-03-02T10:36:34;1.70;;;1.55;;
14883;SDS011;7534;50.762;7.000;2024-03-02T10:39:03;2.90;;;1.88;;
14883;SDS011;7534;50.762;7.000;2024-03-02T10:41:37;2.17;;;1.70;;
14883;SDS011;7534;50.762;7.000;2024-03-02T10:44:04;2.20;;;2.00;;
14883;SDS011;7534;50.762;7.000;2024-03-02T10:46:32;4.25;;;2.00;;
14883;SDS011;7534;50.762;7.000;2024-03-02T10:48:59;2.80;;;1.90;;
14883;SDS011;7534;50.762;7.000;2024-03-02T10:51:28;2.50;;;2.30;;
14883;SDS011;7534;50.762;7.000;2024-03-02T10:54:01;2.27;;;2.07;;
14883;SDS011;7534;50.762;7.000;2024-03-02T10:56:29;2.03;;;1.92;;
14883;SDS011;7534;50.762;7.000;2024-03-02T10:59:02;2.50;;;2.00;;
14883;SDS011;7534;50.762;7.000;2024-03-02T11:01:51;2.17;;;1.97;;
14883;SDS011;7534;50.762;7.000;2024-03-02T11:04:25;2.30;;;1.90;;
14883;SDS011;7534;50.762;7.000;2024-03-02T11:06:52;2.27;;;2.00;;
14883;SDS011;7534;50.762;7.000;2024-03-02T11:09:25;2.17;;;2.00;;
14883;SDS011;7534;50.762;7.000;2024-03-02T11:11:56;2.33;;;2.13;;
14883;SDS011;7534;50.762;7.000;2024-03-02T11:14:50;3.20;;;2.50;;
14883;SDS011;7534;50.762;7.000;2024-03-02T11:17:19;2.53;;;1.83;;
14883;SDS011;7534;50.762;7.000;2024-03-02T11:19:45;2.20;;;2.00;;
14883;SDS011;7534;50.762;7.000;2024-03-02T11:22:12;2.70;;;1.97;;
14883;SDS011;7534;50.762;7.000;2024-03-02T11:24:43;2.43;;;2.23;;
14883;SDS011;7534;50.762;7.000;2024-03-02T11:27:14;2.50;;;2.03;;
14883;SDS011;7534;50.762;7.000;2024-03-02T11:32:57;2.53;;;2.10;;
14883;SDS011;7534;50.762;7.000;2024-03-02T11:35:24;2.53;;;2.20;;
14883;SDS011;7534;50.762;7.000;2024-03-02T11:37:54;2.00;;;1.90;;
14883;SDS011;7534;50.762;7.000;2024-03-02T11:40:23;2.00;;;1.80;;
14883;SDS011;7534;50.762;7.000;2024-03-02T11:42:50;3.17;;;1.90;;
14883;SDS011;7534;50.762;7.000;2024-03-02T11:45:16;2.60;;;2.10;;
14883;SDS011;7534;50.762;7.000;2024-03-02T11:47:50;2.67;;;2.03;;
14883;SDS011;7534;50.762;7.000;2024-03-02T11:50:28;2.00;;;1.53;;
14883;SDS011;7534;50.762;7.000;2024-03-02T11:53:03;1.87;;;1.60;;
14883;SDS011;7534;50.762;7.000;2024-03-02T11:55:31;1.90;;;1.70;;
14883;SDS011;7534;50.762;7.000;2024-03-02T11:58:01;1.73;;;1.50;;
14883;SDS011;7534;50.762;7.000;2024-03-02T12:00:28;1.60;;;1.50;;
14883;SDS011;7534;50.762;7.000;2024-03-02T12:05:29;2.55;;;1.50;;
14883;SDS011;7534;50.762;7.000;2024-03-02T12:07:56;1.55;;;1.45;;
14883;SDS011;7534;50.762;7.000;2024-03-02T12:10:23;1.65;;;1.55;;
14883;SDS011;7534;50.762;7.000;2024-03-02T12:15:26;1.88;;;1.45;;
14883;SDS011;7534;50.762;7.000;2024-03-02T12:17:57;2.10;;;1.50;;
14883;SDS011;7534;50.762;7.000;2024-03-02T12:20:25;2.03;;;1.70;;
14883;SDS011;7534;50.762;7.000;2024-03-02T12:22:53;1.73;;;1.60;;
14883;SDS011;7534;50.762;7.000;2024-03-02T12:25:22;1.63;;;1.52;;
14883;SDS011;7534;50.762;7.000;2024-03-02T12:27:50;1.48;;;1.38;;
14883;SDS011;7534;50.762;7.000;2024-03-02T12:30:18;1.83;;;1.70;;
14883;SDS011;7534;50.762;7.000;2024-03-02T12:32:45;2.55;;;1.60;;
14883;SDS011;7534;50.762;7.000;2024-03-02T12:35:12;1.63;;;1.40;;
14883;SDS011;7534;50.762;7.000;2024-03-02T12:37:50;1.65;;;1.55;;
14883;SDS011;7534;50.762;7.000;2024-03-02T12:40:18;1.73;;;1.60;;
14883;SDS011;7534;50.762;7.000;2024-03-02T12:42:45;1.70;;;1.60;;
14883;SDS011;7534;50.762;7.000;2024-03-02T12:45:12;1.95;;;1.50;;
14883;SDS011;7534;50.762;7.000;2024-03-02T12:47:39;1.90;;;1.60;;
14883;SDS011;7534;50.762;7.000;2024-03-02T12:50:06;1.60;;;1.40;;
14883;SDS011;7534;50.762;7.000;2024-03-02T12:52:32;1.50;;;1.40;;
14883;SDS011;7534;50.762;7.000;2024-03-02T12:55:06;1.55;;;1.30;;
14883;SDS011;7534;50.762;7.000;2024-03-02T12:57:32;2.35;;;1.55;;
14883;SDS011;7534;50.762;7.000;2024-03-02T12:59:59;2.30;;;1.50;;
14883;SDS011;7534;50.762;7.000;2024-03-02T13:02:34;1.55;;;1.45;;
14883;SDS011;7534;50.762;7.000;2024-03-02T13:05:01;1.63;;;1.40;;
14883;SDS011;7534;50.762;7.000;2024-03-02T13:07:27;1.83;;;1.40;;
14883;SDS011;7534;50.762;7.000;2024-03-02T13:09:54;1.40;;;1.20;;
14883;SDS011;7534;50.762;7.000;2024-03-02T13:12:21;1.77;;;1.50;;
14883;SDS011;7534;50.762;7.000;2024-03-02T13:14:50;1.38;;;1.27;;
14883;SDS011;7534;50.762;7.000;2024-03-02T13:17:17;1.70;;;1.40;;
14883;SDS011;7534;50.762;7.000;2024-03-02T13:19:51;1.90;;;1.70;;
14883;SDS011;7534;50.762;7.000;2024-03-02T13:22:24;2.95;;;1.50;;
14883;SDS011;7534;50.762;7.000;2024-03-02T13:24:51;1.50;;;1.40;;
14883;SDS011;7534;50.762;7.000;2024-03-02T13:27:18;1.30;;;1.20;;
14883;SDS011;7534;50.762;7.000;2024-03-02T13:29:47;1.50;;;1.30;;
14883;SDS011;7534;50.762;7.000;2024-03-02T13:32:13;2.33;;;1.40;;
14883;SDS011;7534;50.762;7.000;2024-03-02T13:34:42;1.40;;;1.30;;
14883;SDS011;7534;50.762;7.000;2024-03-02T13:37:08;3.08;;;1.30;;
14883;SDS011;7534;50.762;7.000;2024-03-02T13:39:34;1.50;;;1.40;;
14883;SDS011;7534;50.762;7.000;2024-03-02T13:42:10;1.65;;;1.40;;
14883;SDS011;7534;50.762;7.000;2024-03-02T13:44:40;1.70;;;1.42;;
14883;SDS011;7534;50.762;7.000;2024-03-02T13:47:10;1.75;;;1.50;;
14883;SDS011;7534;50.762;7.000;2024-03-02T13:49:36;3.40;;;1.40;;
14883;SDS011;7534;50.762;7.000;2024-03-02T13:52:03;1.80;;;1.60;;
14883;SDS011;7534;50.762;7.000;2024-03-02T13:54:43;1.95;;;1.73;;
14883;SDS011;7534;50.762;7.000;2024-03-02T13:57:10;1.50;;;1.40;;
14883;SDS011;7534;50.762;7.000;2024-03-02T13:59:37;2.15;;;1.90;;
14883;SDS011;7534;50.762;7.000;2024-03-02T14:02:04;2.83;;;2.58;;
14883;SDS011;7534;50.762;7.000;2024-03-02T14:04:34;2.58;;;2.38;;
14883;SDS011;7534;50.762;7.000;2024-03-02T14:07:00;1.83;;;1.70;;
14883;SDS011;7534;50.762;7.000;2024-03-02T14:09:26;2.03;;;1.50;;
14883;SDS011;7534;50.762;7.000;2024-03-02T14:11:53;4.03;;;1.80;;
14883;SDS011;7534;50.762;7.000;2024-03-02T14:14:20;1.60;;;1.50;;
14883;SDS011;7534;50.762;7.000;2024-03-02T14:16:46;1.80;;;1.45;;
14883;SDS011;7534;50.762;7.000;2024-03-02T14:19:12;1.50;;;1.40;;
14883;SDS011;7534;50.762;7.000;2024-03-02T14:21:39;1.58;;;1.48;;
14883;SDS011;7534;50.762;7.000;2024-03-02T14:24:04;1.50;;;1.40;;
14883;SDS011;7534;50.762;7.000;2024-03-02T14:26:34;1.48;;;1.35;;
14883;SDS011;7534;50.762;7.000;2024-03-02T14:29:01;1.85;;;1.73;;
14883;SDS011;7534;50.762;7.000;2024-03-02T14:31:28;1.65;;;1.48;;
14883;SDS011;7534;50.762;7.000;2024-03-02T14:33:54;1.60;;;1.50;;
14883;SDS011;7534;50.762;7.000;2024-03-02T14:36:20;1.80;;;1.60;;
14883;SDS011;7534;50.762;7.000;2024-03-02T14:38:46;2.30;;;1.97;;
14883;SDS011;7534;50.762;7.000;2024-03-02T14:41:12;1.80;;;1.60;;
14883;SDS011;7534;50.762;7.000;2024-03-02T14:43:38;2.05;;;1.55;;
14883;SDS011;7534;50.762;7.000;2024-03-02T14:46:04;1.60;;;1.50;;
14883;SDS011;7534;50.762;7.000;2024-03-02T14:48:33;2.27;;;2.07;;
14883;SDS011;7534;50.762;7.000;2024-03-02T14:51:00;2.60;;;1.90;;
14883;SDS011;7534;50.762;7.000;2024-03-02T14:53:27;1.87;;;1.67;;
14883;SDS011;7534;50.762;7.000;2024-03-02T14:55:53;1.70;;;1.60;;
14883;SDS011;7534;50.762;7.000;2024-03-02T14:58:19;2.10;;;1.90;;
14883;SDS011;7534;50.762;7.000;2024-03-02T15:00:45;2.27;;;1.73;;
14883;SDS011;7534;50.762;7.000;2024-03-02T15:03:10;1.60;;;1.50;;
14883;SDS011;7534;50.762;7.000;2024-03-02T15:05:37;1.90;;;1.60;;
14883;SDS011;7534;50.762;7.000;2024-03-02T15:08:03;1.73;;;1.63;;
14883;SDS011;7534;50.762;7.000;2024-03-02T15:10:30;1.75;;;1.63;;
14883;SDS011;7534;50.762;7.000;2024-03-02T15:12:57;2.10;;;1.80;;
14883;SDS011;7534;50.762;7.000;2024-03-02T15:15:26;2.13;;;1.60;;